Dallas, TX (75229)

7:23 AM CDT on August 31, 2015 (GMT -0500)
The Hockaday School | | Change Station
CLOSE
Current Station
Personal Weather Station
Location: Dallas, TX
Elevation: 620 ft
Nearby Weather Stations

Elev 620 ft 32.91 °N, 96.83 °W | Updated 38 seconds ago

Mostly Cloudy
Mostly Cloudy
75.3 °F
Feels Like 76 °F
N
1.0
Wind Variable Wind from South
Gusts 2.0 mph

Today
High -- | Low -- °F
--% Chance of Precip.
Yesterday
High -- | Low -- °F
Precip. -- in
7:01 AM 7:53 PM
Waning Gibbous, 95% visible
Pressure 29.97 in
Visibility 10.0 miles
Clouds Few 5000 ft
Mostly Cloudy 10000 ft
Mostly Cloudy 30000 ft
Heat Index 76 °F
Dew Point 67 °F
Humidity 76%
Rainfall 0.00 in
Snow Depth Not available.
UV 0.0 out of 12
Pollen 8.90 out of 12
Air Quality Not available.
Flu Activity Not available.
METAR KDAL 311153Z 17005KT 10SM FEW050 BKN100 BKN300 25/18 A2999 RMK AO2 SLP149 T02500183 10278 20250 52008
Pressure 29.97 in
Visibility 10.0 miles
Clouds Few 5000 ft
Mostly Cloudy 10000 ft
Mostly Cloudy 30000 ft
Heat Index 76 °F
Dew Point 67 °F
Humidity 76%
Rainfall 0.00 in
Snow Depth Not available.
UV 0.0 out of 12
Pollen 8.90 out of 12
Air Quality Not available.
Flu Activity Not available.
METAR KDAL 311153Z 17005KT 10SM FEW050 BKN100 BKN300 25/18 A2999 RMK AO2 SLP149 T02500183 10278 20250 52008

10-Day Weather Forecast

×

Almanac

Astronomy

Aug. 31, 2015 Rise Set
Actual Time
Civil Twilight
Nautical Twilight
Astronomical Twilight
Moon
Length of Visible Light
Length of Day
Tomorrow will be .
, % of the Moon is Illuminated

Today's Extremes

State Highs State Lows

Community

WunderPhotos

Upload Photos

1,851,222 photos uploaded!

WunderBlogs® & News

Nearby

Air Quality

  Air Quality AQ Index Pollutant
Not available.

Snow Depth

Station Depth Elevation

Earthquake Activity

City Distance Mag. Time & Date
Minimum magnitude displayed is 2.5.

Coastal Water Temperatures

Place Temperature

Stations

Nearby Weather Stations

Station Location Temp. Windchill Dew Point Humidity Wind Precip. Elev Updated Type